Flight Track Log - Related Links

Times and Time Zones

All times are in EDT time to prevent confusion due to time zone crossing. See the CCA4486 flight status page for this flight to view local times or setup timezone preferences in your user account.

Time Position Orientation Groundspeed Altitude Reporting Facility
EDT Latitude Longitude Course Direction KTS MPH feet Rate Location/Type
Thu 09:49:00 AM 32.6239 103.7106 174° South  Level Estimated
Thu 09:50:00 AM 32.5656 103.7175 174° South  Level Estimated
Thu 09:51:00 AM 32.5073 103.7244 174° South  Level Estimated
Thu 09:52:00 AM 32.4490 103.7313 174° South  Level Estimated
Thu 09:53:00 AM 32.3907 103.7381 174° South  Level Estimated
Thu 09:54:00 AM 32.3324 103.7450 174° South  Level Estimated
Thu 09:55:00 AM 32.2742 103.7518 174° South  Level Estimated
Thu 09:56:00 AM 32.2159 103.7586 174° South  Level Estimated
Thu 09:57:00 AM 32.1576 103.7655 174° South  Level Estimated
Thu 09:58:00 AM 32.0993 103.7723 174° South  Level Estimated
Thu 09:59:00 AM 32.0410 103.7791 174° South  Level Estimated
Thu 10:00:00 AM 31.9827 103.7859 174° South  Level Estimated
Thu 10:01:00 AM 31.9244 103.7927 174° South  Level Estimated
Thu 10:02:00 AM 31.8661 103.7995 174° South  Level Estimated
Thu 10:03:00 AM 31.8079 103.8062 174° South  Level Estimated
Thu 10:04:00 AM 31.7496 103.8130 174° South  Level Estimated
Thu 10:05:00 AM 31.6913 103.8197 174° South  Level Estimated
Thu 10:06:00 AM 31.6330 103.8265 174° South  Level Estimated
Thu 10:07:00 AM 31.5747 103.8332 174° South  Level Estimated
Thu 10:08:00 AM 31.5164 103.8400 174° South  Level Estimated
Thu 10:09:00 AM 31.4581 103.8467 174° South  Level Estimated
Thu 10:10:00 AM 31.3998 103.8534 174° South  Level Estimated
Thu 10:11:00 AM 31.3415 103.8601 174° South  Level Estimated
Thu 10:12:00 AM 31.2832 103.8668 174° South  Level Estimated
Thu 10:13:00 AM 31.2250 103.8735 174° South  Level Estimated
Thu 10:14:00 AM 31.1667 103.8801 174° South  Level Estimated
Thu 10:15:00 AM 31.1084 103.8868 174° South  Level Estimated
Thu 10:16:00 AM 31.0501 103.8935 174° South  Level Estimated
Thu 10:17:00 AM 30.9918 103.9001 174° South  Level Estimated
Thu 10:18:00 AM 30.9335 103.9068 174° South  Level Estimated
Thu 10:19:00 AM 30.8752 103.9134 174° South  Level Estimated
Thu 10:20:00 AM 30.8169 103.9201 174° South  Level Estimated
Thu 10:21:00 AM 30.7586 103.9267 174° South  Level Estimated
Thu 10:22:00 AM 30.7003 103.9333 174° South  Level Estimated
Thu 10:23:00 AM 30.6420 103.9399 174° South  Level Estimated
Thu 10:24:00 AM 30.5837 103.9465 174° South  Level Estimated
Thu 10:25:00 AM 30.5785 103.9471 174° South  Level Estimated
Thu 10:26:00 AM 30.5785 103.9471 North  Level Estimated
Thu 10:27:00 AM 30.5785 103.9471 North  Level Estimated
Thu 10:28:00 AM 30.5785 103.9471 North  Level Estimated
Thu 10:29:00 AM 30.5785 103.9471 North  Level Estimated
Thu 10:30:00 AM 30.5785 103.9471 North  Level Estimated
Thu 10:31:00 AM 30.5785 103.9471 North  Level Estimated
Thu 10:32:00 AM 30.5785 103.9471 North  Level Estimated
Thu 10:33:00 AM 30.5785 103.9471 North  Level Estimated
Thu 10:34:00 AM 30.5785 103.9471 North  Level Estimated
Thu 10:35:00 AM 30.5785 103.9471 North  Level Estimated
Thu 10:36:00 AM 30.5785 103.9471 North  Level Estimated

Login

Don't have an account? Register now (free) for customized features, flight alerts, and more!